EKSB/SGD METAR and TAF weather

Enter ICAO airport designator
Station Type Date Time Source
EKSB METAR 2021/09/24 03:50 UTC NOAA

EKSB 240350Z AUTO 27006KT 230V310 9999 BKN037/// 12/08 Q1009


Station Type Date Time Source
EKSB Decoded METAR 2021/09/24 03:50 UTC NOAA

Soenderborg Lufthavn, Denmark (EKSB) 54-58N 009-47E 14M
Sep 23, 2021 - 11:50 PM EDT / 2021.09.24 0350 UTC
Wind: from the W (270 degrees) at 7 MPH (6 KT) (direction variable):0
Visibility: greater than 7 mile(s):0
Sky conditions: mostly cloudy
Temperature: 53 F (12 C)
Dew Point: 46 F (8 C)
Relative Humidity: 76%
Pressure (altimeter): 29.80 in. Hg (1009 hPa)
ob: EKSB 240350Z AUTO 27006KT 230V310 9999 BKN037/// 12/08 Q1009
cycle: 4

Station Type Date Time Source
EKSB TAF 2016/01/27 09:03 UTC NOAA

TAF TAF EKSB 270856Z 2709/2721 23022KT 5000 -RA BR BKN008
TEMPO 2709/2721 24025G40KT 2000 RADZ BKN004

Example: see airport list